Time;durP1;ratioP1;P1;durP2;ratioP2;P2;SDS_P1;SDS_P2;PMS_P1;PMS_P2;Temp;Humidity;BMP_temperature;BMP_pressure;BME280_temperature;BME280_humidity;BME280_pressure;Samples;Min_cycle;Max_cycle;Signal;HPM_P1;HPM_P2
2022/09/14 00:01:12;;;;;;;;;;;;;;;16.63;66.49;100627.22;5056113;28;20432;-82
2022/09/14 00:03:39;;;;;;;;;;;;;;;16.64;65.98;100623.44;5059291;28;20000;-83
2022/09/14 00:06:08;;;;;;;;;;;;;;;16.66;65.94;100624.09;5039138;28;20387;-83
2022/09/14 00:08:33;;;;;;;;;;;;;;;16.58;66.63;100624.28;5051342;28;20392;-83
2022/09/14 00:11:03;;;;;;;;;;;;;;;16.62;66.59;100620.13;5057614;28;19948;-82
2022/09/14 00:13:28;;;;;;;;;;;;;;;16.56;66.54;100618.19;5051624;28;19925;-83
2022/09/14 00:15:53;;;;;;;;;;;;;;;16.45;66.87;100621.47;5059034;28;19927;-84
2022/09/14 00:18:20;;;;;;;;;;;;;;;16.54;66.36;100616.72;5020928;28;20305;-83
2022/09/14 00:20:48;;;;;;;;;;;;;;;16.45;66.84;100621.47;5042916;28;19999;-83
2022/09/14 00:23:13;;;;;;;;;;;;;;;16.41;66.78;100625.63;5058724;28;19920;-84
2022/09/14 00:25:38;;;;;;;;;;;;;;;16.44;66.32;100625.25;5040498;28;19944;-83
2022/09/14 00:28:05;;;;;;;;;;;;;;;16.37;66.97;100627.09;5042745;28;19925;-83
2022/09/14 00:30:30;;;;;;;;;;;;;;;16.39;66.45;100630.44;5040065;28;19920;-83
2022/09/14 00:32:59;;;;;;;;;;;;;;;16.42;66.18;100633.56;5030924;28;19924;-83
2022/09/14 00:35:29;;;;;;;;;;;;;;;16.41;66.01;100633.75;5056605;28;19931;-81
2022/09/14 00:37:56;;;;;;;;;;;;;;;16.42;66.27;100638.16;5058524;28;19923;-83
2022/09/14 00:40:23;;;;;;;;;;;;;;;16.39;66.15;100644.00;5042677;28;19920;-84
2022/09/14 00:42:51;;;;;;;;;;;;;;;16.39;66.14;100644.84;5053018;28;19920;-83
2022/09/14 00:45:18;;;;;;;;;;;;;;;16.41;65.92;100647.31;5070860;28;19916;-82
2022/09/14 00:47:46;;;;;;;;;;;;;;;16.36;66.08;100641.66;5070397;28;19920;-83
2022/09/14 00:50:11;;;;;;;;;;;;;;;16.41;66.04;100631.91;5037515;28;19955;-84
2022/09/14 00:52:37;;;;;;;;;;;;;;;16.42;65.67;100632.75;5077449;28;19933;-82
2022/09/14 00:55:05;;;;;;;;;;;;;;;16.41;65.82;100641.91;5066061;28;19947;-82
2022/09/14 00:57:35;;;;;;;;;;;;;;;16.41;66.06;100641.91;5054132;28;20443;-83
2022/09/14 01:00:01;;;;;;;;;;;;;;;16.43;65.65;100637.13;5073701;28;19913;-82
2022/09/14 01:02:26;;;;;;;;;;;;;;;16.36;65.97;100644.38;5052883;28;19916;-83
2022/09/14 01:04:52;;;;;;;;;;;;;;;16.32;65.93;100640.38;5050377;28;19916;-83
2022/09/14 01:07:37;;;;;;;;;;;;;;;16.22;66.23;100640.75;5047150;28;19943;-81
2022/09/14 01:10:11;;;;;;;;;;;;;;;16.21;66.11;100636.38;5068211;28;19927;-83
2022/09/14 01:12:43;;;;;;;;;;;;;;;16.18;66.07;100639.47;5046134;28;19971;-82
2022/09/14 01:15:16;;;;;;;;;;;;;;;16.18;65.80;100639.47;5034277;28;20430;-83
2022/09/14 01:17:41;;;;;;;;;;;;;;;16.15;66.29;100648.00;5049893;28;20375;-83
2022/09/14 01:20:07;;;;;;;;;;;;;;;16.16;66.16;100638.84;5071858;28;20007;-82
2022/09/14 01:22:36;;;;;;;;;;;;;;;16.07;66.29;100640.03;5053294;28;19920;-82
2022/09/14 01:25:07;;;;;;;;;;;;;;;15.98;66.59;100642.03;5045222;28;19916;-82
2022/09/14 01:27:40;;;;;;;;;;;;;;;15.98;66.35;100639.31;5070613;28;19919;-82
2022/09/14 01:30:09;;;;;;;;;;;;;;;15.81;66.93;100636.91;5041716;28;19924;-82
2022/09/14 01:32:38;;;;;;;;;;;;;;;15.79;66.50;100632.72;5069091;28;20311;-82
2022/09/14 01:35:25;;;;;;;;;;;;;;;15.79;66.99;100632.72;5050868;28;19920;-82
2022/09/14 01:37:57;;;;;;;;;;;;;;;15.71;66.51;100628.28;5068404;28;20015;-82
2022/09/14 01:40:27;;;;;;;;;;;;;;;15.65;66.99;100636.31;5068134;28;19920;-82
2022/09/14 01:42:56;;;;;;;;;;;;;;;15.60;66.86;100635.00;5042613;28;19924;-82
2022/09/14 01:45:25;;;;;;;;;;;;;;;15.55;66.93;100639.34;5049376;28;19924;-83
2022/09/14 01:47:56;;;;;;;;;;;;;;;15.60;66.36;100634.19;5071025;28;20016;-82
2022/09/14 01:50:23;;;;;;;;;;;;;;;15.57;65.28;100645.41;5058247;28;19920;-84
2022/09/14 01:52:56;;;;;;;;;;;;;;;15.56;64.88;100644.56;5049960;28;19989;-82
2022/09/14 01:55:30;;;;;;;;;;;;;;;15.53;65.13;100647.66;5060153;28;19916;-82
2022/09/14 01:58:01;;;;;;;;;;;;;;;15.58;64.62;100647.09;5069322;28;19943;-82
2022/09/14 02:00:27;;;;;;;;;;;;;;;15.49;64.64;100642.81;5027117;28;19927;-84
2022/09/14 02:03:12;;;;;;;;;;;;;;;15.48;64.94;100646.59;5050006;28;19916;-82
2022/09/14 02:05:41;;;;;;;;;;;;;;;15.44;64.84;100646.13;5049014;28;19920;-82
2022/09/14 02:08:07;;;;;;;;;;;;;;;15.41;65.20;100636.50;5042268;28;19923;-83
2022/09/14 02:10:33;;;;;;;;;;;;;;;15.47;65.55;100644.88;5048741;28;19966;-83
2022/09/14 02:13:00;;;;;;;;;;;;;;;15.36;64.70;100647.09;5069791;28;19917;-82
2022/09/14 02:15:25;;;;;;;;;;;;;;;15.30;64.78;100645.13;5065788;28;19992;-82
2022/09/14 02:17:52;;;;;;;;;;;;;;;15.23;65.00;100644.22;5065860;28;19900;-80
2022/09/14 02:20:38;;;;;;;;;;;;;;;15.19;65.18;100654.63;5093417;28;19921;-81
2022/09/14 02:23:05;;;;;;;;;;;;;;;15.17;64.98;100653.97;5044686;28;19936;-82
2022/09/14 02:25:31;;;;;;;;;;;;;;;15.23;64.92;100655.06;5050173;28;19921;-82
2022/09/14 02:27:58;;;;;;;;;;;;;;;15.20;64.67;100655.47;5067934;28;19912;-82
2022/09/14 02:30:26;;;;;;;;;;;;;;;15.06;64.83;100659.88;5064777;28;20002;-83
2022/09/14 02:32:57;;;;;;;;;;;;;;;15.11;64.57;100654.72;5039157;28;19936;-83
2022/09/14 02:35:27;;;;;;;;;;;;;;;15.05;64.31;100647.34;5069683;28;19921;-83
2022/09/14 02:38:11;;;;;;;;;;;;;;;15.08;64.55;100651.56;5051818;28;19921;-82
2022/09/14 02:40:39;;;;;;;;;;;;;;;14.93;64.36;100652.41;5067699;28;19959;-82
2022/09/14 02:43:07;;;;;;;;;;;;;;;14.95;64.32;100653.06;5051778;28;20003;-83
2022/09/14 02:45:38;;;;;;;;;;;;;;;14.91;64.88;100651.81;5070662;28;20003;-82
2022/09/14 02:48:07;;;;;;;;;;;;;;;14.78;65.13;100647.03;5049257;28;19998;-82
2022/09/14 02:50:37;;;;;;;;;;;;;;;14.79;65.05;100637.03;5049815;28;19920;-83
2022/09/14 02:53:02;;;;;;;;;;;;;;;14.73;65.34;100632.41;5050935;28;19923;-82
2022/09/14 02:55:29;;;;;;;;;;;;;;;14.70;65.26;100636.34;5049000;28;19916;-81
2022/09/14 02:57:59;;;;;;;;;;;;;;;14.73;65.32;100633.25;5051214;28;20014;-83
2022/09/14 03:00:24;;;;;;;;;;;;;;;14.66;65.34;100636.91;5037559;28;19970;-82
2022/09/14 03:02:51;;;;;;;;;;;;;;;14.60;65.29;100643.06;5065570;28;20015;-82
2022/09/14 03:05:16;;;;;;;;;;;;;;;14.63;65.03;100642.66;5067162;28;19925;-82
2022/09/14 03:07:44;;;;;;;;;;;;;;;14.53;65.54;100648.34;5066038;28;19920;-81
2022/09/14 03:10:12;;;;;;;;;;;;;;;14.60;65.50;100648.47;5049482;28;19929;-83
2022/09/14 03:12:38;;;;;;;;;;;;;;;14.52;65.84;100642.09;5043715;28;20304;-83
2022/09/14 03:15:04;;;;;;;;;;;;;;;14.50;65.59;100643.31;5050311;28;19924;-82
2022/09/14 03:17:30;;;;;;;;;;;;;;;14.52;65.57;100641.25;5046824;28;19936;-82
2022/09/14 03:19:55;;;;;;;;;;;;;;;14.46;65.37;100650.13;5037624;28;20375;-84
2022/09/14 03:22:24;;;;;;;;;;;;;;;14.45;65.49;100641.16;5047952;28;19930;-83
2022/09/14 03:24:49;;;;;;;;;;;;;;;14.35;65.65;100635.19;5067799;28;19923;-84
2022/09/14 03:27:14;;;;;;;;;;;;;;;14.34;65.88;100637.03;5054519;28;19920;-82
2022/09/14 03:29:40;;;;;;;;;;;;;;;14.29;65.61;100641.34;5053366;28;20058;-84
2022/09/14 03:32:09;;;;;;;;;;;;;;;14.31;65.52;100639.31;5067845;28;19921;-82
2022/09/14 03:34:35;;;;;;;;;;;;;;;14.29;65.56;100654.88;5067503;28;19967;-83
2022/09/14 03:37:01;;;;;;;;;;;;;;;14.27;65.59;100648.81;5066234;28;19956;-83
2022/09/14 03:39:31;;;;;;;;;;;;;;;14.26;65.40;100664.19;5068102;28;19952;-83
2022/09/14 03:41:58;;;;;;;;;;;;;;;14.24;65.47;100668.09;5069016;28;19916;-82
2022/09/14 03:44:24;;;;;;;;;;;;;;;14.11;65.27;100672.25;5071300;28;19920;-84
2022/09/14 03:46:52;;;;;;;;;;;;;;;14.12;65.23;100668.56;5073907;28;19916;-84
2022/09/14 03:49:18;;;;;;;;;;;;;;;14.09;65.11;100674.34;5049287;28;19938;-82
2022/09/14 03:51:44;;;;;;;;;;;;;;;14.10;64.92;100673.31;5073785;28;19924;-84
2022/09/14 03:54:09;;;;;;;;;;;;;;;14.15;64.50;100678.16;5053727;28;19920;-84
2022/09/14 03:56:36;;;;;;;;;;;;;;;14.14;64.64;100685.44;5054373;28;20372;-84
2022/09/14 03:59:03;;;;;;;;;;;;;;;14.19;64.52;100686.72;5067807;28;19940;-84
2022/09/14 04:01:31;;;;;;;;;;;;;;;14.28;64.10;100685.63;5051291;28;19917;-84
2022/09/14 04:03:57;;;;;;;;;;;;;;;14.24;64.16;100687.03;5045180;28;19928;-83
2022/09/14 04:06:22;;;;;;;;;;;;;;;14.31;63.76;100688.81;5053980;28;19916;-82
2022/09/14 04:08:47;;;;;;;;;;;;;;;14.25;63.42;100683.28;5072606;28;19916;-82
2022/09/14 04:11:14;;;;;;;;;;;;;;;14.22;62.97;100679.09;5036233;28;19916;-83
2022/09/14 04:13:43;;;;;;;;;;;;;;;14.26;63.15;100685.00;5047032;28;19927;-83
2022/09/14 04:16:08;;;;;;;;;;;;;;;14.36;61.98;100685.56;5052289;28;19917;-83
2022/09/14 04:18:34;;;;;;;;;;;;;;;14.19;62.35;100686.72;5053278;28;19916;-83
2022/09/14 04:21:00;;;;;;;;;;;;;;;14.29;62.36;100687.31;5049939;28;19960;-84
2022/09/14 04:23:26;;;;;;;;;;;;;;;14.32;61.90;100684.25;5053580;28;19925;-84
2022/09/14 04:25:54;;;;;;;;;;;;;;;14.29;62.02;100690.03;5073302;28;19916;-81
2022/09/14 04:28:20;;;;;;;;;;;;;;;14.30;62.12;100691.69;5068245;28;19916;-81
2022/09/14 04:30:56;;;;;;;;;;;;;;;14.24;62.21;100690.56;5048915;28;19928;-82
2022/09/14 04:33:22;;;;;;;;;;;;;;;14.25;61.89;100688.69;5070524;28;19916;-82
2022/09/14 04:35:57;;;;;;;;;;;;;;;14.36;61.93;100690.97;5076960;28;19916;-82
2022/09/14 04:38:22;;;;;;;;;;;;;;;14.34;61.73;100698.41;5085212;28;19970;-83
2022/09/14 04:40:48;;;;;;;;;;;;;;;14.35;61.38;100700.94;5054202;28;19963;-83
2022/09/14 04:43:13;;;;;;;;;;;;;;;14.40;61.35;100702.22;5051743;28;19916;-85
2022/09/14 04:45:40;;;;;;;;;;;;;;;14.38;61.13;100704.31;5046560;28;19999;-84
2022/09/14 04:48:06;;;;;;;;;;;;;;;14.51;60.52;100705.31;5029970;28;20448;-84
2022/09/14 04:50:32;;;;;;;;;;;;;;;14.54;60.12;100707.72;5022470;28;19928;-83
2022/09/14 04:53:00;;;;;;;;;;;;;;;14.62;59.68;100703.22;5052359;28;19921;-83
2022/09/14 04:55:26;;;;;;;;;;;;;;;14.69;59.56;100701.47;5049915;28;19951;-83
2022/09/14 04:57:52;;;;;;;;;;;;;;;14.67;59.18;100704.34;5051854;28;20320;-83
2022/09/14 05:00:17;;;;;;;;;;;;;;;14.78;59.34;100708.47;5062007;28;19924;-83
2022/09/14 05:02:42;;;;;;;;;;;;;;;14.79;58.89;100707.41;5033571;28;19970;-84
2022/09/14 05:05:09;;;;;;;;;;;;;;;14.90;58.20;100698.00;5048537;28;19924;-84
2022/09/14 05:07:37;;;;;;;;;;;;;;;14.97;58.37;100698.91;5052402;28;19920;-84
2022/09/14 05:10:06;;;;;;;;;;;;;;;15.04;57.60;100709.84;5046885;28;19990;-82
2022/09/14 05:12:33;;;;;;;;;;;;;;;15.16;57.25;100702.91;5069727;28;19916;-83
2022/09/14 05:14:58;;;;;;;;;;;;;;;15.27;57.29;100704.28;5069375;28;19916;-84
2022/09/14 05:17:23;;;;;;;;;;;;;;;15.26;56.97;100708.00;5049287;28;20018;-85
2022/09/14 05:19:49;;;;;;;;;;;;;;;15.32;56.54;100710.78;5043736;28;19916;-84
2022/09/14 05:22:16;;;;;;;;;;;;;;;15.47;56.30;100704.50;5036417;28;19916;-83
2022/09/14 05:24:43;;;;;;;;;;;;;;;15.60;55.83;100705.47;5064897;28;20028;-85
2022/09/14 05:27:11;;;;;;;;;;;;;;;16.25;54.09;100697.34;5066669;28;20345;-83
2022/09/14 05:29:39;;;;;;;;;;;;;;;17.58;50.79;100700.69;5066944;28;20376;-84
2022/09/14 05:32:06;;;;;;;;;;;;;;;18.52;48.10;100699.69;5051976;28;19920;-84
2022/09/14 05:34:33;;;;;;;;;;;;;;;19.28;46.32;100708.28;5070027;28;19916;-85
2022/09/14 05:36:59;;;;;;;;;;;;;;;19.96;44.98;100699.47;5048808;28;19921;-86
2022/09/14 05:39:25;;;;;;;;;;;;;;;20.16;43.91;100702.88;5070310;28;19922;-84
2022/09/14 05:41:51;;;;;;;;;;;;;;;20.43;43.38;100699.91;5049345;28;20412;-85
2022/09/14 05:44:16;;;;;;;;;;;;;;;20.99;42.52;100703.53;5052611;28;19916;-84
2022/09/14 05:46:41;;;;;;;;;;;;;;;21.32;42.09;100702.28;5050123;28;19916;-83
2022/09/14 05:49:09;;;;;;;;;;;;;;;21.58;41.28;100704.66;5048217;28;20080;-84
2022/09/14 05:51:35;;;;;;;;;;;;;;;21.85;41.08;100710.56;5067723;28;19916;-84
2022/09/14 05:54:08;;;;;;;;;;;;;;;22.04;40.87;100716.81;5070603;28;20427;-84
2022/09/14 05:56:34;;;;;;;;;;;;;;;22.24;40.66;100715.66;5050371;28;19916;-84
2022/09/14 05:59:00;;;;;;;;;;;;;;;22.46;40.07;100716.75;5052375;28;19927;-85
2022/09/14 06:01:28;;;;;;;;;;;;;;;22.86;39.91;100710.50;5046701;28;20003;-88
2022/09/14 06:03:54;;;;;;;;;;;;;;;23.29;38.54;100719.38;5016600;28;20425;-85
2022/09/14 06:06:21;;;;;;;;;;;;;;;23.57;37.78;100713.88;5031526;28;20043;-85
2022/09/14 06:08:52;;;;;;;;;;;;;;;23.94;37.44;100707.16;5025503;28;20012;-85
2022/09/14 06:11:19;;;;;;;;;;;;;;;24.28;36.79;100724.47;5027492;28;20443;-83
2022/09/14 06:13:45;;;;;;;;;;;;;;;24.56;35.60;100730.94;5044044;28;19960;-85
2022/09/14 06:16:11;;;;;;;;;;;;;;;24.80;34.34;100726.91;5047587;28;20293;-84
2022/09/14 06:18:37;;;;;;;;;;;;;;;25.10;34.58;100730.31;5026268;28;19916;-85
2022/09/14 06:21:04;;;;;;;;;;;;;;;25.18;34.28;100733.50;5042396;28;19913;-89
2022/09/14 06:23:34;;;;;;;;;;;;;;;25.10;34.24;100741.31;5007646;28;20340;-87
2022/09/14 06:26:01;;;;;;;;;;;;;;;25.33;34.16;100738.34;5043574;28;20369;-85
2022/09/14 06:28:26;;;;;;;;;;;;;;;25.42;33.57;100738.72;5043878;28;19925;-87
2022/09/14 06:30:51;;;;;;;;;;;;;;;25.69;34.06;100742.31;5034471;28;19923;-86
2022/09/14 06:33:18;;;;;;;;;;;;;;;26.02;32.89;100739.63;5065315;28;19944;-84
2022/09/14 06:35:56;;;;;;;;;;;;;;;25.88;31.86;100739.22;5062982;28;20250;-83
2022/09/14 06:38:21;;;;;;;;;;;;;;;26.20;31.74;100738.38;5055072;28;19923;-82
2022/09/14 06:40:55;;;;;;;;;;;;;;;26.19;31.78;100736.75;5028454;28;20003;-86
2022/09/14 06:43:26;;;;;;;;;;;;;;;26.46;31.83;100743.03;5044741;28;19960;-83
2022/09/14 06:45:55;;;;;;;;;;;;;;;26.77;31.31;100742.44;5030701;28;20400;-85
2022/09/14 06:48:23;;;;;;;;;;;;;;;27.13;30.42;100751.69;5059887;28;19980;-88
2022/09/14 06:50:56;;;;;;;;;;;;;;;27.43;31.15;100744.66;5057600;28;19905;-85
2022/09/14 06:53:22;;;;;;;;;;;;;;;27.41;31.60;100747.69;5057141;28;19904;-87
2022/09/14 06:55:47;;;;;;;;;;;;;;;26.88;32.32;100755.19;5049631;28;20006;-85
2022/09/14 06:58:14;;;;;;;;;;;;;;;26.85;31.94;100756.53;5031755;28;20095;-85
2022/09/14 07:00:39;;;;;;;;;;;;;;;27.14;31.26;100754.19;5028521;28;19982;-86
2022/09/14 07:03:05;;;;;;;;;;;;;;;26.90;32.14;100759.31;5067847;28;19986;-87
2022/09/14 07:05:30;;;;;;;;;;;;;;;27.19;30.72;100761.66;5054652;28;19917;-86
2022/09/14 07:07:57;;;;;;;;;;;;;;;27.09;30.30;100759.69;5070840;28;19916;-87
2022/09/14 07:10:26;;;;;;;;;;;;;;;27.05;30.50;100764.09;5066276;28;20264;-87
2022/09/14 07:12:54;;;;;;;;;;;;;;;27.19;30.61;100763.59;5050746;28;19963;-88
2022/09/14 07:15:21;;;;;;;;;;;;;;;26.93;30.58;100761.53;5067375;28;20010;-87
2022/09/14 07:17:49;;;;;;;;;;;;;;;27.10;30.17;100753.06;5071002;28;19920;-83
2022/09/14 07:20:19;;;;;;;;;;;;;;;26.89;30.92;100757.66;5056565;28;19920;-88
2022/09/14 07:22:45;;;;;;;;;;;;;;;27.25;30.36;100748.75;5072497;28;19916;-89
2022/09/14 07:25:10;;;;;;;;;;;;;;;27.61;29.76;100754.41;5070981;28;19927;-86
2022/09/14 07:27:39;;;;;;;;;;;;;;;27.77;29.51;100756.09;5051033;28;19948;-87
2022/09/14 07:32:43;;;;;;;;;;;;;;;28.45;28.45;100760.53;5093156;23;19913;-86
2022/09/14 07:35:12;;;;;;;;;;;;;;;28.86;27.71;100760.50;5030215;28;19927;-89
2022/09/14 07:37:42;;;;;;;;;;;;;;;29.01;27.44;100757.72;5047449;28;19924;-90
2022/09/14 07:40:30;;;;;;;;;;;;;;;29.23;27.13;100755.41;5051278;28;19988;-85
2022/09/14 07:43:00;;;;;;;;;;;;;;;29.46;27.20;100750.34;5046682;28;19949;-85
2022/09/14 07:45:27;;;;;;;;;;;;;;;30.22;26.22;100748.16;5018591;28;19986;-84
2022/09/14 07:47:52;;;;;;;;;;;;;;;30.96;25.13;100750.81;5020897;28;21694;-85
2022/09/14 07:50:18;;;;;;;;;;;;;;;31.29;24.28;100744.28;5026305;28;19917;-84
2022/09/14 07:52:47;;;;;;;;;;;;;;;31.96;23.73;100740.59;5011130;28;19983;-84
2022/09/14 07:55:16;;;;;;;;;;;;;;;31.99;23.07;100744.72;5031489;28;19970;-83
2022/09/14 07:57:47;;;;;;;;;;;;;;;31.63;23.67;100734.97;5049406;28;20443;-82
2022/09/14 08:00:15;;;;;;;;;;;;;;;32.16;22.83;100745.00;5034071;28;19913;-84
2022/09/14 08:02:40;;;;;;;;;;;;;;;32.24;22.63;100747.09;5028106;28;19957;-84
2022/09/14 08:05:08;;;;;;;;;;;;;;;32.54;22.00;100745.72;5026265;28;19925;-87
2022/09/14 08:07:36;;;;;;;;;;;;;;;33.20;21.35;100746.41;5049117;28;19916;-84
2022/09/14 08:10:13;;;;;;;;;;;;;;;33.89;20.30;100734.28;5049628;28;19947;-86
2022/09/14 08:12:42;;;;;;;;;;;;;;;34.54;19.41;100730.13;5060492;28;19913;-91
2022/09/14 08:15:07;;;;;;;;;;;;;;;34.89;19.48;100725.53;5028929;28;20674;-85
2022/09/14 08:17:33;;;;;;;;;;;;;;;35.40;19.10;100723.22;5022051;28;19917;-89
2022/09/14 08:20:00;;;;;;;;;;;;;;;35.29;18.66;100741.44;5034601;28;20316;-85
2022/09/14 08:22:26;;;;;;;;;;;;;;;35.09;18.84;100738.06;5035627;28;19916;-86
2022/09/14 08:24:53;;;;;;;;;;;;;;;36.09;17.84;100735.56;5038124;28;20273;-88
2022/09/14 08:27:22;;;;;;;;;;;;;;;36.45;17.15;100742.72;5023432;28;20032;-85
2022/09/14 08:29:47;;;;;;;;;;;;;;;37.48;16.61;100743.41;4998845;28;19921;-88
2022/09/14 08:32:13;;;;;;;;;;;;;;;37.49;16.31;100741.44;5021857;28;20074;-86
2022/09/14 08:34:39;;;;;;;;;;;;;;;38.21;15.57;100736.53;5018534;28;20298;-89
2022/09/14 08:37:04;;;;;;;;;;;;;;;39.32;14.69;100733.84;5027522;28;20373;-81
2022/09/14 08:39:31;;;;;;;;;;;;;;;38.68;15.12;100736.19;5036085;28;19916;-82
2022/09/14 08:41:58;;;;;;;;;;;;;;;39.74;14.33;100736.34;5051295;28;19956;-81
2022/09/14 08:44:30;;;;;;;;;;;;;;;40.74;13.44;100727.03;5052173;28;19960;-82
2022/09/14 08:47:08;;;;;;;;;;;;;;;40.57;13.14;100729.00;5024623;28;19917;-81
2022/09/14 08:49:51;;;;;;;;;;;;;;;39.35;14.26;100730.31;5045920;28;19967;-81
2022/09/14 08:52:33;;;;;;;;;;;;;;;40.31;13.74;100723.91;5051929;28;20360;-82
2022/09/14 08:55:01;;;;;;;;;;;;;;;41.07;12.77;100712.50;5034118;28;19925;-83
2022/09/14 08:57:27;;;;;;;;;;;;;;;40.21;13.52;100716.78;5026295;28;20018;-83
2022/09/14 09:00:04;;;;;;;;;;;;;;;40.54;12.53;100709.19;5051807;28;19920;-82
2022/09/14 09:02:49;;;;;;;;;;;;;;;41.06;12.55;100708.06;5033340;28;19916;-81
2022/09/14 09:05:23;;;;;;;;;;;;;;;41.31;12.07;100712.28;5052254;28;19912;-82
2022/09/14 09:07:56;;;;;;;;;;;;;;;41.40;12.43;100714.06;5051949;28;20356;-82
2022/09/14 09:10:23;;;;;;;;;;;;;;;40.45;12.61;100710.19;5034130;28;20300;-83
2022/09/14 09:12:53;;;;;;;;;;;;;;;41.29;12.37;100703.38;5032805;28;19974;-84
2022/09/14 09:15:38;;;;;;;;;;;;;;;41.83;11.70;100703.72;5024391;28;19912;-82
2022/09/14 09:18:07;;;;;;;;;;;;;;;42.79;10.29;100705.50;5035065;28;19916;-83
2022/09/14 09:20:33;;;;;;;;;;;;;;;44.08;9.68;100703.59;5026135;28;19952;-81
2022/09/14 09:23:12;;;;;;;;;;;;;;;43.44;9.57;100700.81;5033386;28;19943;-81
2022/09/14 09:25:40;;;;;;;;;;;;;;;43.37;9.04;100700.72;5051404;28;20011;-82
2022/09/14 09:28:09;;;;;;;;;;;;;;;44.84;8.81;100707.94;5052303;28;20381;-82
2022/09/14 09:30:34;;;;;;;;;;;;;;;45.34;8.53;100696.94;5027785;28;20003;-82
2022/09/14 09:33:00;;;;;;;;;;;;;;;44.92;8.53;100692.63;5016637;28;19936;-82
2022/09/14 09:35:26;;;;;;;;;;;;;;;44.64;8.49;100705.34;5012470;28;19921;-82
2022/09/14 09:37:53;;;;;;;;;;;;;;;44.75;8.58;100681.94;5035042;28;20062;-82
2022/09/14 09:40:26;;;;;;;;;;;;;;;46.05;8.03;100684.22;5033514;28;19913;-82
2022/09/14 09:43:07;;;;;;;;;;;;;;;44.75;8.23;100679.13;5019124;28;19935;-81
2022/09/14 09:45:47;;;;;;;;;;;;;;;45.39;7.75;100688.03;5016546;28;20320;-82
2022/09/14 09:48:13;;;;;;;;;;;;;;;45.60;7.65;100686.53;5019069;28;19921;-82
2022/09/14 09:51:08;;;;;;;;;;;;;;;46.41;7.34;100685.09;5001184;28;19913;-83
2022/09/14 09:53:33;;;;;;;;;;;;;;;45.56;7.74;100674.31;5008898;28;19913;-82
2022/09/14 09:55:58;;;;;;;;;;;;;;;45.17;7.77;100670.06;5018007;28;19943;-81
2022/09/14 09:58:30;;;;;;;;;;;;;;;46.43;7.38;100671.25;5015278;28;20297;-82
2022/09/14 10:01:03;;;;;;;;;;;;;;;46.54;7.57;100682.63;5030480;28;19917;-82
2022/09/14 10:03:33;;;;;;;;;;;;;;;46.41;7.10;100681.41;5029777;28;19932;-92
2022/09/14 10:06:01;;;;;;;;;;;;;;;47.09;6.94;100673.63;5000541;28;19921;-88
2022/09/14 10:08:33;;;;;;;;;;;;;;;46.38;7.43;100674.50;5028546;28;19975;-85
2022/09/14 10:10:58;;;;;;;;;;;;;;;46.81;7.02;100671.66;5027270;28;19917;-86
2022/09/14 10:13:29;;;;;;;;;;;;;;;46.35;7.10;100677.34;5041107;28;19915;-82
2022/09/14 10:16:04;;;;;;;;;;;;;;;44.92;7.88;100672.75;5033795;28;20436;-86
2022/09/14 10:18:29;;;;;;;;;;;;;;;45.22;7.22;100668.91;5022312;28;20332;-81
2022/09/14 10:21:05;;;;;;;;;;;;;;;45.81;7.58;100666.69;4999294;28;19927;-81
2022/09/14 10:23:35;;;;;;;;;;;;;;;44.44;8.21;100672.78;5033412;28;19917;-79
2022/09/14 10:26:29;;;;;;;;;;;;;;;45.08;7.85;100664.75;5055340;28;20349;-83
2022/09/14 10:29:10;;;;;;;;;;;;;;;44.64;8.44;100662.81;4931800;28;19919;-82
2022/09/14 10:31:41;;;;;;;;;;;;;;;43.51;8.88;100668.97;5018429;28;19921;-82
2022/09/14 10:34:07;;;;;;;;;;;;;;;43.92;8.21;100669.03;5012156;28;19924;-83
2022/09/14 10:36:37;;;;;;;;;;;;;;;44.30;7.99;100667.78;4998431;28;19917;-81
2022/09/14 10:39:07;;;;;;;;;;;;;;;45.07;7.23;100660.31;5004098;28;19929;-81
2022/09/14 10:41:40;;;;;;;;;;;;;;;46.03;7.06;100664.72;5008787;28;19951;-82
2022/09/14 10:44:24;;;;;;;;;;;;;;;46.73;6.58;100662.31;5022612;28;19921;-83
2022/09/14 10:46:49;;;;;;;;;;;;;;;46.86;6.62;100647.69;5007843;28;19917;-84
2022/09/14 10:49:36;;;;;;;;;;;;;;;45.90;7.31;100650.06;5024086;28;20012;-85
2022/09/14 10:52:11;;;;;;;;;;;;;;;45.08;7.28;100641.25;5025421;28;20011;-82
2022/09/14 10:54:47;;;;;;;;;;;;;;;45.88;7.11;100640.34;5008816;28;19921;-88
2022/09/14 10:57:16;;;;;;;;;;;;;;;44.25;7.78;100643.50;5007674;28;19917;-85
2022/09/14 11:00:02;;;;;;;;;;;;;;;44.44;7.94;100638.78;4991414;28;19917;-84
2022/09/14 11:02:46;;;;;;;;;;;;;;;44.14;8.13;100639.75;5002382;28;19917;-84
2022/09/14 11:05:13;;;;;;;;;;;;;;;43.52;8.21;100639.44;5027419;28;19921;-83
2022/09/14 11:07:58;;;;;;;;;;;;;;;42.74;8.56;100640.00;5011680;28;19963;-83
2022/09/14 11:10:51;;;;;;;;;;;;;;;42.90;9.02;100626.53;5027030;28;20292;-82
2022/09/14 11:13:22;;;;;;;;;;;;;;;42.31;8.65;100622.31;4997125;28;20488;-81
2022/09/14 11:16:06;;;;;;;;;;;;;;;42.23;9.11;100626.22;5011104;28;19927;-82
2022/09/14 11:18:46;;;;;;;;;;;;;;;41.34;9.28;100623.31;5029523;28;19998;-83
2022/09/14 11:21:21;;;;;;;;;;;;;;;40.89;9.75;100622.72;5029541;28;20295;-86
2022/09/14 11:23:59;;;;;;;;;;;;;;;40.96;9.90;100632.53;5030983;28;19913;-84
2022/09/14 11:26:30;;;;;;;;;;;;;;;40.42;9.93;100632.06;5029140;28;19917;-83
2022/09/14 11:29:22;;;;;;;;;;;;;;;40.50;10.38;100639.50;5015165;28;19917;-84
2022/09/14 11:31:50;;;;;;;;;;;;;;;38.41;16.15;100634.56;5037212;28;20011;-83
2022/09/14 11:34:20;;;;;;;;;;;;;;;37.48;18.39;100641.66;5004076;28;19922;-81
2022/09/14 11:36:50;;;;;;;;;;;;;;;37.68;18.84;100637.22;5040498;28;19916;-83
2022/09/14 11:39:22;;;;;;;;;;;;;;;36.82;19.81;100639.50;5067725;28;19923;-82
2022/09/14 11:41:49;;;;;;;;;;;;;;;35.53;19.87;100636.72;5041237;28;19922;-83
2022/09/14 11:44:18;;;;;;;;;;;;;;;33.89;22.14;100619.94;5032832;28;20351;-83
2022/09/14 11:46:45;;;;;;;;;;;;;;;33.21;23.67;100625.47;5029219;28;19923;-83
2022/09/14 11:49:17;;;;;;;;;;;;;;;32.32;25.01;100621.19;5032805;28;19919;-83
2022/09/14 11:51:43;;;;;;;;;;;;;;;31.93;26.30;100622.44;5049639;28;19916;-83
2022/09/14 11:54:16;;;;;;;;;;;;;;;31.03;28.06;100613.31;5030873;28;20032;-83
2022/09/14 11:56:57;;;;;;;;;;;;;;;30.75;28.58;100612.28;5046593;28;20370;-83
2022/09/14 11:59:41;;;;;;;;;;;;;;;30.26;29.84;100607.88;5032416;28;19912;-82
2022/09/14 12:02:26;;;;;;;;;;;;;;;30.49;29.97;100603.44;5047268;28;19955;-81
2022/09/14 12:05:07;;;;;;;;;;;;;;;30.22;29.90;100590.13;5039871;28;19998;-81
2022/09/14 12:07:45;;;;;;;;;;;;;;;29.85;30.69;100594.38;5052016;28;20007;-80
2022/09/14 12:10:16;;;;;;;;;;;;;;;29.52;31.69;100591.31;5054253;28;20007;-82
2022/09/14 12:12:48;;;;;;;;;;;;;;;29.38;31.61;100593.09;5052233;28;20710;-81
2022/09/14 12:15:20;;;;;;;;;;;;;;;29.39;32.26;100592.81;5052416;28;19921;-83
2022/09/14 12:17:46;;;;;;;;;;;;;;;28.91;33.77;100592.53;5033225;28;19917;-83
2022/09/14 12:20:29;;;;;;;;;;;;;;;28.72;34.33;100575.75;5036331;28;19920;-82
2022/09/14 12:23:21;;;;;;;;;;;;;;;28.57;34.40;100575.84;5051139;28;19916;-78
2022/09/14 12:26:00;;;;;;;;;;;;;;;28.81;34.62;100574.06;4991666;28;19924;-82
2022/09/14 12:28:46;;;;;;;;;;;;;;;28.91;35.08;100569.56;5052683;28;20061;-78
2022/09/14 12:31:27;;;;;;;;;;;;;;;28.96;34.11;100572.31;5054755;28;19913;-81
2022/09/14 12:34:32;;;;;;;;;;;;;;;28.27;35.52;100569.28;5008866;28;20423;-83
2022/09/14 12:37:20;;;;;;;;;;;;;;;28.20;36.84;100566.81;4965580;28;19918;-82
2022/09/14 12:40:04;;;;;;;;;;;;;;;28.38;36.21;100567.31;4984543;28;20017;-83
2022/09/14 12:42:31;;;;;;;;;;;;;;;28.41;36.46;100573.09;5047301;28;20370;-84
2022/09/14 12:44:57;;;;;;;;;;;;;;;28.34;36.85;100566.22;5046119;28;19980;-80
2022/09/14 12:47:23;;;;;;;;;;;;;;;27.95;37.31;100548.34;5062100;28;19917;-85
2022/09/14 12:49:49;;;;;;;;;;;;;;;27.46;38.42;100557.22;5057449;28;19967;-84
2022/09/14 12:52:25;;;;;;;;;;;;;;;27.64;38.99;100558.59;5023496;28;19959;-82
2022/09/14 12:54:55;;;;;;;;;;;;;;;27.88;39.07;100558.88;5053126;28;20329;-81